createdAt,value
2023-05-05T00:02:15.511Z,100366.38
2023-05-05T00:04:42.328Z,100365.38
2023-05-05T00:07:08.936Z,100356.20
2023-05-05T00:09:35.773Z,100357.45
2023-05-05T00:12:03.076Z,100359.22
2023-05-05T00:14:29.726Z,100362.96
2023-05-05T00:16:56.463Z,100365.38
2023-05-05T00:19:23.117Z,100366.80
2023-05-05T00:21:49.773Z,100373.34
2023-05-05T00:24:16.397Z,100373.17
2023-05-05T00:26:43.006Z,100372.41
2023-05-05T00:29:10.240Z,100375.61
2023-05-05T00:31:37.805Z,100373.17
2023-05-05T00:34:04.734Z,100374.50
2023-05-05T00:36:31.325Z,100378.34
2023-05-05T00:38:57.917Z,100375.60
2023-05-05T00:41:24.606Z,100371.24
2023-05-05T00:43:51.226Z,100370.20
2023-05-05T00:46:26.255Z,100372.44
2023-05-05T00:48:53.078Z,100374.59
2023-05-05T00:51:20.299Z,100381.63
2023-05-05T00:53:47.927Z,100379.53
2023-05-05T00:56:19.508Z,100377.24
2023-05-05T00:58:46.481Z,100379.95
2023-05-05T01:01:13.771Z,100379.52
2023-05-05T01:03:41.656Z,100376.14
2023-05-05T01:06:18.919Z,100373.09
2023-05-05T01:09:02.077Z,100370.36
2023-05-05T01:11:46.451Z,100365.18
2023-05-05T01:14:16.419Z,100365.86
2023-05-05T01:16:50.768Z,100368.14
2023-05-05T01:19:27.712Z,100367.52
2023-05-05T01:21:57.170Z,100366.35
2023-05-05T01:24:39.013Z,100367.83
2023-05-05T01:27:34.092Z,100370.41
2023-05-05T01:30:16.494Z,100374.59
2023-05-05T01:32:47.710Z,100376.97
2023-05-05T01:35:29.049Z,100376.70
2023-05-05T01:38:08.186Z,100379.65
2023-05-05T01:40:43.613Z,100378.44
2023-05-05T01:43:10.631Z,100385.23
2023-05-05T01:45:38.780Z,100383.20
2023-05-05T01:48:06.168Z,100385.06
2023-05-05T01:50:33.556Z,100384.98
2023-05-05T01:53:00.164Z,100385.35
2023-05-05T01:55:26.796Z,100384.13
2023-05-05T01:57:53.470Z,100387.78
2023-05-05T02:00:20.783Z,100387.59
2023-05-05T02:02:47.853Z,100386.76
2023-05-05T02:05:14.607Z,100383.54
2023-05-05T02:07:41.238Z,100379.76
2023-05-05T02:10:10.399Z,100379.10
2023-05-05T02:12:37.088Z,100378.22
2023-05-05T02:15:04.769Z,100374.31
2023-05-05T02:17:31.438Z,100370.27
2023-05-05T02:19:58.961Z,100372.95
2023-05-05T02:22:25.551Z,100369.13
2023-05-05T02:24:52.411Z,100364.06
2023-05-05T02:27:19.053Z,100364.06
2023-05-05T02:29:58.146Z,100371.63
2023-05-05T02:32:32.210Z,100371.26
2023-05-05T02:34:59.291Z,100370.79
2023-05-05T02:37:27.324Z,100373.69
2023-05-05T02:39:59.147Z,100375.71
2023-05-05T02:42:33.931Z,100378.53
2023-05-05T02:45:03.551Z,100377.86
2023-05-05T02:47:36.202Z,100382.96
2023-05-05T02:50:03.968Z,100389.59
2023-05-05T02:52:32.142Z,100395.00
2023-05-05T02:54:59.276Z,100398.66
2023-05-05T02:57:51.508Z,100400.03
2023-05-05T03:00:23.548Z,100400.71
2023-05-05T03:03:01.095Z,100393.14
2023-05-05T03:05:30.356Z,100391.48
2023-05-05T03:08:20.688Z,100385.98
2023-05-05T03:10:57.422Z,100377.61
2023-05-05T03:13:24.247Z,100369.41
2023-05-05T03:15:51.779Z,100366.69
2023-05-05T03:18:20.638Z,100367.14
2023-05-05T03:20:51.110Z,100363.04
2023-05-05T03:23:22.962Z,100363.59
2023-05-05T03:25:53.099Z,100368.08
2023-05-05T03:28:29.568Z,100374.04
2023-05-05T03:30:57.657Z,100375.91
2023-05-05T03:33:24.661Z,100378.09
2023-05-05T03:35:51.355Z,100376.83
2023-05-05T03:38:18.158Z,100380.75
2023-05-05T03:40:45.354Z,100385.02
2023-05-05T03:43:14.517Z,100384.58
2023-05-05T03:45:41.404Z,100382.41
2023-05-05T03:48:09.743Z,100381.52
2023-05-05T03:50:37.923Z,100382.41
2023-05-05T03:53:04.691Z,100379.30
2023-05-05T03:55:31.858Z,100382.88
2023-05-05T03:57:58.466Z,100384.73
2023-05-05T04:00:25.404Z,100392.52
2023-05-05T04:02:52.524Z,100393.83
2023-05-05T04:05:20.028Z,100396.77
2023-05-05T04:07:46.975Z,100394.34
2023-05-05T04:10:14.421Z,100397.13
2023-05-05T04:12:41.151Z,100390.16
2023-05-05T04:15:08.913Z,100390.33
2023-05-05T04:17:35.792Z,100390.71
2023-05-05T04:20:03.037Z,100395.54
2023-05-05T04:22:31.569Z,100397.33
2023-05-05T04:24:59.053Z,100401.70
2023-05-05T04:27:26.289Z,100406.16
2023-05-05T04:29:53.514Z,100407.02
2023-05-05T04:32:20.221Z,100408.16
2023-05-05T04:34:48.427Z,100409.64
2023-05-05T04:37:16.250Z,100409.98
2023-05-05T04:39:43.190Z,100410.80
2023-05-05T04:42:10.266Z,100411.38
2023-05-05T04:44:36.892Z,100404.08
2023-05-05T04:47:04.289Z,100406.02
2023-05-05T04:49:31.376Z,100412.26
2023-05-05T04:51:58.448Z,100422.23
2023-05-05T04:54:25.079Z,100434.17
2023-05-05T04:56:51.780Z,100441.15
2023-05-05T04:59:18.710Z,100444.26
2023-05-05T05:01:47.063Z,100444.35
2023-05-05T05:04:18.345Z,100441.29
2023-05-05T05:06:46.025Z,100443.80
2023-05-05T05:09:13.282Z,100441.11
2023-05-05T05:11:40.412Z,100440.71
2023-05-05T05:14:07.138Z,100436.05
2023-05-05T05:16:33.854Z,100429.71
2023-05-05T05:19:01.772Z,100423.52
2023-05-05T05:21:29.912Z,100427.06
2023-05-05T05:24:00.802Z,100437.66
2023-05-05T05:26:28.096Z,100441.33
2023-05-05T05:28:54.919Z,100443.42
2023-05-05T05:31:21.843Z,100444.23
2023-05-05T05:33:48.537Z,100445.97
2023-05-05T05:36:15.425Z,100438.91
2023-05-05T05:38:42.426Z,100442.98
2023-05-05T05:41:09.608Z,100440.84
2023-05-05T05:43:37.149Z,100431.37
2023-05-05T05:46:05.029Z,100430.96
2023-05-05T05:48:33.361Z,100436.13
2023-05-05T05:51:00.184Z,100439.21
2023-05-05T05:53:27.096Z,100435.95
2023-05-05T05:55:54.118Z,100436.70
2023-05-05T05:58:20.938Z,100440.09
2023-05-05T06:00:48.556Z,100437.70
2023-05-05T06:03:16.100Z,100437.89
2023-05-05T06:05:44.490Z,100438.95
2023-05-05T06:08:11.607Z,100431.23
2023-05-05T06:10:43.289Z,100429.73
2023-05-05T06:13:14.208Z,100430.95
2023-05-05T06:15:43.168Z,100435.77
2023-05-05T06:18:12.080Z,100437.91
2023-05-05T06:20:39.081Z,100437.40
2023-05-05T06:23:06.105Z,100436.79
2023-05-05T06:25:34.076Z,100434.27
2023-05-05T06:28:00.666Z,100436.21
2023-05-05T06:30:27.496Z,100433.65
2023-05-05T06:32:54.402Z,100434.51
2023-05-05T06:35:22.369Z,100436.02
2023-05-05T06:37:49.006Z,100437.55
2023-05-05T06:40:16.055Z,100435.48
2023-05-05T06:42:42.680Z,100437.35
2023-05-05T06:45:11.142Z,100440.77
2023-05-05T06:47:37.833Z,100433.94
2023-05-05T06:50:06.091Z,100428.73
2023-05-05T06:52:33.101Z,100423.41
2023-05-05T06:54:59.756Z,100416.02
2023-05-05T06:57:26.819Z,100417.39
2023-05-05T06:59:54.089Z,100412.77
2023-05-05T07:02:20.976Z,100415.79
2023-05-05T07:04:48.098Z,100419.23
2023-05-05T07:07:14.950Z,100422.49
2023-05-05T07:09:41.739Z,100424.64
2023-05-05T07:12:08.447Z,100425.01
2023-05-05T07:14:35.026Z,100428.00
2023-05-05T07:17:01.703Z,100432.55
2023-05-05T07:19:28.361Z,100432.71
2023-05-05T07:21:55.114Z,100431.61
2023-05-05T07:24:21.794Z,100432.70
2023-05-05T07:26:48.414Z,100430.58
2023-05-05T07:29:15.024Z,100431.34
2023-05-05T07:31:41.658Z,100433.54
2023-05-05T07:34:08.267Z,100439.98
2023-05-05T07:36:34.864Z,100440.83
2023-05-05T07:39:01.522Z,100436.48
2023-05-05T07:41:28.139Z,100430.98
2023-05-05T07:43:54.860Z,100429.69
2023-05-05T07:46:21.608Z,100430.05
2023-05-05T07:48:48.213Z,100426.66
2023-05-05T07:51:14.790Z,100426.33
2023-05-05T07:53:41.429Z,100426.84
2023-05-05T07:56:09.079Z,100423.59
2023-05-05T07:58:35.886Z,100419.96
2023-05-05T08:01:02.853Z,100424.04
2023-05-05T08:03:29.658Z,100421.66
2023-05-05T08:05:57.060Z,100420.74
2023-05-05T08:08:25.042Z,100421.02
2023-05-05T08:10:53.197Z,100421.55
2023-05-05T08:13:20.369Z,100420.48
2023-05-05T08:15:49.075Z,100418.07
2023-05-05T08:18:15.681Z,100413.45
2023-05-05T08:20:42.363Z,100416.32
2023-05-05T08:23:08.963Z,100414.39
2023-05-05T08:25:36.119Z,100412.61
2023-05-05T08:28:02.736Z,100412.52
2023-05-05T08:30:29.545Z,100414.86
2023-05-05T08:32:56.520Z,100415.86
2023-05-05T08:35:23.160Z,100410.46
2023-05-05T08:37:51.401Z,100412.03
2023-05-05T08:40:18.307Z,100411.13
2023-05-05T08:42:45.883Z,100411.02
2023-05-05T08:45:12.722Z,100411.11
2023-05-05T08:47:39.812Z,100408.48
2023-05-05T08:50:07.497Z,100410.58
2023-05-05T08:52:41.901Z,100410.98
2023-05-05T08:55:26.593Z,100414.95
2023-05-05T08:57:57.048Z,100414.02
2023-05-05T09:00:24.082Z,100412.65
2023-05-05T09:02:50.824Z,100413.77
2023-05-05T09:05:17.855Z,100417.19
2023-05-05T09:07:44.851Z,100410.11
2023-05-05T09:10:11.846Z,100413.30
2023-05-05T09:12:40.534Z,100410.89
2023-05-05T09:15:09.550Z,100413.59
2023-05-05T09:17:36.833Z,100409.75
2023-05-05T09:20:10.878Z,100411.34
2023-05-05T09:22:45.616Z,100415.17
2023-05-05T09:25:16.707Z,100409.85
2023-05-05T09:27:46.108Z,100404.49
2023-05-05T09:30:16.609Z,100404.95
2023-05-05T09:32:51.306Z,100405.73
2023-05-05T09:35:18.689Z,100401.95
2023-05-05T09:37:45.480Z,100396.36
2023-05-05T09:40:17.320Z,100392.71
2023-05-05T09:42:44.965Z,100387.83
2023-05-05T09:45:17.852Z,100394.29
2023-05-05T09:47:45.750Z,100392.05
2023-05-05T09:50:18.522Z,100388.92
2023-05-05T09:53:02.610Z,100385.39
2023-05-05T09:55:31.185Z,100386.23
2023-05-05T09:57:58.629Z,100390.71
2023-05-05T10:00:37.679Z,100387.67
2023-05-05T10:03:04.354Z,100385.91
2023-05-05T10:05:31.251Z,100384.17
2023-05-05T10:07:57.993Z,100382.27
2023-05-05T10:10:24.615Z,100380.56
2023-05-05T10:12:51.274Z,100372.45
2023-05-05T10:15:17.898Z,100368.21
2023-05-05T10:18:05.390Z,100369.08
2023-05-05T10:20:33.868Z,100368.09
2023-05-05T10:23:00.676Z,100365.16
2023-05-05T10:25:31.606Z,100362.02
2023-05-05T10:27:59.825Z,100358.77
2023-05-05T10:30:29.778Z,100358.02
2023-05-05T10:33:31.189Z,100355.40
2023-05-05T10:36:01.606Z,100356.49
2023-05-05T10:38:31.456Z,100353.05
2023-05-05T10:41:02.149Z,100348.55
2023-05-05T10:43:30.160Z,100354.50
2023-05-05T10:45:57.179Z,100353.70
2023-05-05T10:48:34.911Z,100350.60
2023-05-05T10:51:35.956Z,100347.38
2023-05-05T10:54:10.719Z,100343.57
2023-05-05T10:56:37.400Z,100350.93
2023-05-05T10:59:04.286Z,100349.05
2023-05-05T11:01:34.983Z,100342.15
2023-05-05T11:04:18.252Z,100341.55
2023-05-05T11:07:08.770Z,100342.41
2023-05-05T11:09:42.673Z,100345.15
2023-05-05T11:12:09.462Z,100350.21
2023-05-05T11:14:36.578Z,100349.84
2023-05-05T11:17:03.202Z,100342.14
2023-05-05T11:19:42.242Z,100335.69
2023-05-05T11:22:09.031Z,100336.36
2023-05-05T11:24:39.881Z,100334.36
2023-05-05T11:27:06.650Z,100329.61
2023-05-05T11:30:04.728Z,100322.23
2023-05-05T11:32:31.498Z,100320.39
2023-05-05T11:34:58.269Z,100323.53
2023-05-05T11:37:29.480Z,100318.96
2023-05-05T11:40:11.868Z,100315.60
2023-05-05T11:42:38.606Z,100319.27
2023-05-05T11:45:19.891Z,100316.30
2023-05-05T11:47:46.842Z,100312.95
2023-05-05T11:50:18.516Z,100310.85
2023-05-05T11:52:45.471Z,100311.55
2023-05-05T11:55:12.341Z,100311.94
2023-05-05T11:57:39.754Z,100304.80
2023-05-05T12:00:08.335Z,100302.46
2023-05-05T12:02:35.519Z,100301.83
2023-05-05T12:05:02.761Z,100297.96
2023-05-05T12:07:31.283Z,100293.51
2023-05-05T12:09:57.949Z,100291.48
2023-05-05T12:12:38.213Z,100289.44
2023-05-05T12:15:05.883Z,100284.91
2023-05-05T12:17:37.056Z,100282.67
2023-05-05T12:20:04.608Z,100279.69
2023-05-05T12:25:43.485Z,100275.70
2023-05-05T12:28:10.104Z,100276.69
2023-05-05T12:30:36.914Z,100275.12
2023-05-05T12:33:07.774Z,100274.30
2023-05-05T12:35:34.373Z,100270.41
2023-05-05T12:38:01.061Z,100272.42
2023-05-05T12:40:44.791Z,100265.63
2023-05-05T12:43:33.577Z,100264.71
2023-05-05T12:46:03.735Z,100259.10
2023-05-05T12:48:30.849Z,100254.95
2023-05-05T12:51:20.663Z,100252.27
2023-05-05T12:53:48.362Z,100250.77
2023-05-05T12:56:44.252Z,100249.57
2023-05-05T12:59:23.405Z,100253.13
2023-05-05T13:01:51.627Z,100253.16
2023-05-05T13:04:19.219Z,100256.95
2023-05-05T13:06:47.937Z,100255.48
2023-05-05T13:09:30.390Z,100255.84
2023-05-05T13:11:57.037Z,100249.17
2023-05-05T13:14:23.805Z,100250.59
2023-05-05T13:16:50.702Z,100256.11
2023-05-05T13:19:17.305Z,100252.39
2023-05-05T13:21:43.929Z,100245.52
2023-05-05T13:24:21.303Z,100243.36
2023-05-05T13:26:53.164Z,100243.27
2023-05-05T13:29:19.876Z,100243.88
2023-05-05T13:31:46.955Z,100249.02
2023-05-05T13:34:13.918Z,100251.85
2023-05-05T13:37:48.959Z,100253.27
2023-05-05T13:40:15.573Z,100251.56
2023-05-05T13:42:42.245Z,100253.99
2023-05-05T13:45:09.735Z,100250.95
2023-05-05T13:47:36.554Z,100248.71
2023-05-05T13:50:03.278Z,100244.70
2023-05-05T13:52:31.728Z,100240.20
2023-05-05T13:55:01.086Z,100241.96
2023-05-05T13:57:28.074Z,100242.27
2023-05-05T13:59:55.032Z,100242.65
2023-05-05T14:02:21.711Z,100241.80
2023-05-05T14:04:48.291Z,100242.25
2023-05-05T14:07:14.879Z,100237.20
2023-05-05T14:09:41.557Z,100236.89
2023-05-05T14:12:08.161Z,100233.55
2023-05-05T14:14:35.360Z,100235.22
2023-05-05T14:17:02.312Z,100230.08
2023-05-05T14:19:29.070Z,100231.05
2023-05-05T14:21:55.673Z,100231.55
2023-05-05T14:26:19.932Z,100231.52
2023-05-05T14:28:48.975Z,100230.55
2023-05-05T14:31:17.617Z,100229.52
2023-05-05T14:33:44.281Z,100231.19
2023-05-05T14:36:11.152Z,100228.70
2023-05-05T14:38:37.995Z,100227.33
2023-05-05T14:41:04.916Z,100225.19
2023-05-05T14:43:31.562Z,100221.99
2023-05-05T14:46:00.391Z,100218.82
2023-05-05T14:48:27.759Z,100222.30
2023-05-05T14:50:54.377Z,100223.40
2023-05-05T14:53:21.000Z,100222.98
2023-05-05T14:55:47.878Z,100220.71
2023-05-05T14:58:40.443Z,100224.20
2023-05-05T15:01:07.699Z,100225.32
2023-05-05T15:03:34.677Z,100223.52
2023-05-05T15:06:01.458Z,100222.02
2023-05-05T15:08:28.050Z,100218.20
2023-05-05T15:10:54.683Z,100225.36
2023-05-05T15:13:21.410Z,100222.73
2023-05-05T15:15:49.016Z,100226.93
2023-05-05T15:18:15.759Z,100229.16
2023-05-05T15:20:42.362Z,100229.66
2023-05-05T15:23:09.004Z,100229.80
2023-05-05T15:25:35.648Z,100232.36
2023-05-05T15:28:02.401Z,100233.17
2023-05-05T15:30:28.997Z,100232.97
2023-05-05T15:32:55.855Z,100234.03
2023-05-05T15:35:25.370Z,100230.17
2023-05-05T15:37:53.171Z,100228.11
2023-05-05T15:40:19.907Z,100228.98
2023-05-05T15:42:47.919Z,100226.44
2023-05-05T15:45:15.110Z,100221.59
2023-05-05T15:47:41.813Z,100221.48
2023-05-05T15:50:09.144Z,100224.96
2023-05-05T15:52:35.778Z,100221.70
2023-05-05T15:55:02.372Z,100224.36
2023-05-05T15:57:29.440Z,100230.23
2023-05-05T15:59:56.139Z,100228.33
2023-05-05T16:02:23.128Z,100229.05
2023-05-05T16:04:50.287Z,100228.25
2023-05-05T16:07:17.188Z,100230.61
2023-05-05T16:09:44.464Z,100228.48
2023-05-05T16:12:11.099Z,100230.71
2023-05-05T16:14:37.711Z,100237.36
2023-05-05T16:17:04.412Z,100239.59
2023-05-05T16:19:31.373Z,100238.80
2023-05-05T16:21:57.978Z,100241.33
2023-05-05T16:24:24.581Z,100248.52
2023-05-05T16:26:51.543Z,100246.55
2023-05-05T16:29:18.271Z,100246.77
2023-05-05T16:31:45.041Z,100242.64
2023-05-05T16:34:11.691Z,100245.66
2023-05-05T16:36:38.283Z,100248.58
2023-05-05T16:39:04.903Z,100249.64
2023-05-05T16:41:31.649Z,100254.84
2023-05-05T16:43:58.333Z,100254.05
2023-05-05T16:46:25.044Z,100256.96
2023-05-05T16:48:51.684Z,100257.38
2023-05-05T16:51:18.283Z,100262.70
2023-05-05T16:53:45.506Z,100263.46
2023-05-05T16:56:13.383Z,100267.96
2023-05-05T16:58:40.623Z,100270.48
2023-05-05T17:01:07.365Z,100272.98
2023-05-05T17:03:34.032Z,100274.78
2023-05-05T17:06:00.768Z,100278.48
2023-05-05T17:08:27.665Z,100276.17
2023-05-05T17:10:54.260Z,100281.98
2023-05-05T17:13:21.015Z,100282.89
2023-05-05T17:15:47.768Z,100285.04
2023-05-05T17:18:14.419Z,100283.73
2023-05-05T17:20:41.010Z,100281.88
2023-05-05T17:23:08.921Z,100282.16
2023-05-05T17:25:35.895Z,100280.55
2023-05-05T17:28:02.867Z,100285.11
2023-05-05T17:30:29.487Z,100280.61
2023-05-05T17:32:56.222Z,100285.58
2023-05-05T17:35:22.951Z,100288.52
2023-05-05T17:37:49.626Z,100289.40
2023-05-05T17:40:16.320Z,100294.07
2023-05-05T17:42:42.917Z,100289.30
2023-05-05T17:45:10.688Z,100289.86
2023-05-05T17:47:37.748Z,100295.27
2023-05-05T17:50:05.091Z,100295.98
2023-05-05T17:52:31.781Z,100298.48
2023-05-05T17:54:58.575Z,100298.47
2023-05-05T17:57:25.173Z,100301.52
2023-05-05T17:59:53.974Z,100300.98
2023-05-05T18:02:21.118Z,100303.47
2023-05-05T18:04:47.891Z,100307.95
2023-05-05T18:07:14.743Z,100306.08
2023-05-05T18:09:41.576Z,100312.87
2023-05-05T18:12:08.319Z,100315.39
2023-05-05T18:14:34.979Z,100317.02
2023-05-05T18:17:01.584Z,100319.32
2023-05-05T18:19:28.193Z,100320.23
2023-05-05T18:21:54.840Z,100318.80
2023-05-05T18:24:21.575Z,100322.66
2023-05-05T18:26:50.222Z,100323.05
2023-05-05T18:29:18.017Z,100325.90
2023-05-05T18:31:53.157Z,100331.15
2023-05-05T18:34:20.817Z,100329.06
2023-05-05T18:36:47.486Z,100328.30
2023-05-05T18:39:14.554Z,100332.04
2023-05-05T18:41:41.193Z,100333.55
2023-05-05T18:44:08.043Z,100336.41
2023-05-05T18:46:34.890Z,100342.13
2023-05-05T18:49:01.790Z,100338.81
2023-05-05T18:51:29.086Z,100342.69
2023-05-05T18:53:55.961Z,100339.75
2023-05-05T18:56:22.632Z,100339.96
2023-05-05T18:58:49.449Z,100339.97
2023-05-05T19:01:16.625Z,100339.21
2023-05-05T19:03:46.127Z,100336.55
2023-05-05T19:06:12.821Z,100337.86
2023-05-05T19:08:39.499Z,100336.11
2023-05-05T19:11:06.275Z,100335.73
2023-05-05T19:13:32.897Z,100339.60
2023-05-05T19:15:59.564Z,100342.27
2023-05-05T19:18:27.137Z,100346.11
2023-05-05T19:20:53.820Z,100349.23
2023-05-05T19:23:20.463Z,100346.61
2023-05-05T19:25:47.066Z,100343.90
2023-05-05T19:28:13.682Z,100343.25
2023-05-05T19:30:40.322Z,100344.41
2023-05-05T19:33:07.116Z,100341.18
2023-05-05T19:35:35.196Z,100346.08
2023-05-05T19:38:02.178Z,100344.52
2023-05-05T19:40:28.787Z,100348.65
2023-05-05T19:42:55.612Z,100350.20
2023-05-05T19:45:22.284Z,100350.68
2023-05-05T19:47:49.090Z,100354.29
2023-05-05T19:50:16.593Z,100350.58
2023-05-05T19:52:43.284Z,100355.55
2023-05-05T19:55:10.590Z,100359.52
2023-05-05T19:57:37.425Z,100352.77
2023-05-05T20:00:04.740Z,100359.85
2023-05-05T20:02:33.236Z,100360.16
2023-05-05T20:05:01.251Z,100363.40
2023-05-05T20:07:28.021Z,100366.73
2023-05-05T20:09:54.624Z,100368.33
2023-05-05T20:12:23.194Z,100371.71
2023-05-05T20:14:49.804Z,100370.64
2023-05-05T20:17:20.133Z,100372.56
2023-05-05T20:19:47.836Z,100373.25
2023-05-05T20:22:14.418Z,100370.77
2023-05-05T20:24:41.105Z,100372.28
2023-05-05T20:27:08.033Z,100366.64
2023-05-05T20:29:34.631Z,100369.36
2023-05-05T20:32:01.347Z,100374.54
2023-05-05T20:34:28.197Z,100377.46
2023-05-05T20:36:54.925Z,100378.11
2023-05-05T20:39:21.593Z,100381.89
2023-05-05T20:41:48.508Z,100378.55
2023-05-05T20:44:15.129Z,100380.94
2023-05-05T20:46:41.782Z,100383.39
2023-05-05T20:49:08.382Z,100390.61
2023-05-05T20:51:35.183Z,100393.16
2023-05-05T20:54:02.341Z,100394.09
2023-05-05T20:56:28.974Z,100397.78
2023-05-05T20:58:56.851Z,100400.02
2023-05-05T21:01:23.590Z,100398.41
2023-05-05T21:03:50.710Z,100403.43
2023-05-05T21:06:19.501Z,100403.31
2023-05-05T21:08:47.459Z,100403.48
2023-05-05T21:11:14.085Z,100413.42
2023-05-05T21:13:40.671Z,100416.95
2023-05-05T21:16:07.467Z,100418.18
2023-05-05T21:18:34.183Z,100417.64
2023-05-05T21:21:01.329Z,100420.38
2023-05-05T21:23:27.935Z,100420.66
2023-05-05T21:25:54.572Z,100421.25
2023-05-05T21:28:21.207Z,100421.79
2023-05-05T21:31:10.244Z,100426.38
2023-05-05T21:33:37.560Z,100425.06
2023-05-05T21:36:04.833Z,100429.17
2023-05-05T21:38:31.477Z,100430.58
2023-05-05T21:40:58.294Z,100427.64
2023-05-05T21:43:31.136Z,100427.41
2023-05-05T21:45:59.347Z,100428.45
2023-05-05T21:48:26.000Z,100433.33
2023-05-05T21:50:53.402Z,100436.81
2023-05-05T21:53:20.018Z,100435.41
2023-05-05T21:55:47.028Z,100435.30
2023-05-05T21:58:13.655Z,100433.84
2023-05-05T22:00:42.324Z,100435.15
2023-05-05T22:03:09.775Z,100438.36
2023-05-05T22:05:36.891Z,100442.98
2023-05-05T22:08:03.862Z,100443.42
2023-05-05T22:10:30.503Z,100446.29
2023-05-05T22:12:58.044Z,100443.59
2023-05-05T22:15:29.992Z,100439.60
2023-05-05T22:17:59.639Z,100438.70
2023-05-05T22:20:26.384Z,100436.36
2023-05-05T22:22:52.994Z,100435.98
2023-05-05T22:25:19.741Z,100432.79
2023-05-05T22:27:46.718Z,100436.59
2023-05-05T22:30:13.797Z,100438.08
2023-05-05T22:32:43.398Z,100434.38
2023-05-05T22:35:10.291Z,100432.71
2023-05-05T22:37:37.169Z,100436.45
2023-05-05T22:40:04.520Z,100437.20
2023-05-05T22:42:31.346Z,100441.13
2023-05-05T22:44:58.114Z,100438.15
2023-05-05T22:47:24.717Z,100443.91
2023-05-05T22:49:51.376Z,100445.24
2023-05-05T22:52:18.426Z,100451.42
2023-05-05T22:54:45.021Z,100449.23
2023-05-05T22:57:11.654Z,100450.53
2023-05-05T22:59:38.391Z,100449.52
2023-05-05T23:04:52.778Z,100446.44
2023-05-05T23:07:19.700Z,100446.05
2023-05-05T23:09:47.054Z,100447.36
2023-05-05T23:12:13.873Z,100452.25
2023-05-05T23:14:40.542Z,100455.10
2023-05-05T23:17:07.235Z,100453.45
2023-05-05T23:19:34.763Z,100455.44
2023-05-05T23:22:02.028Z,100452.80
2023-05-05T23:24:28.700Z,100453.39
2023-05-05T23:26:58.212Z,100451.51
2023-05-05T23:29:24.916Z,100455.16
2023-05-05T23:31:51.528Z,100458.88
2023-05-05T23:34:18.136Z,100457.23
2023-05-05T23:36:44.734Z,100463.67
2023-05-05T23:39:11.455Z,100464.60
2023-05-05T23:41:38.194Z,100464.85
2023-05-05T23:44:04.918Z,100465.39
2023-05-05T23:46:31.614Z,100463.99
2023-05-05T23:48:58.381Z,100465.54
2023-05-05T23:51:24.965Z,100478.72
2023-05-05T23:53:51.553Z,100482.70
2023-05-05T23:56:18.218Z,100484.42
2023-05-05T23:58:44.803Z,100482.85
